Time;durP1;ratioP1;P1;durP2;ratioP2;P2;SDS_P1;SDS_P2;PMS_P1;PMS_P2;Temp;Humidity;BMP_temperature;BMP_pressure;BME280_temperature;BME280_humidity;BME280_pressure;Samples;Min_cycle;Max_cycle;Signal;HPM_P1;HPM_P2
2022/06/12 00:00:12;;;;;;;8.82;1.90;;;;;;;14.73;66.22;102197.16;5026723;28;20044;-75
2022/06/12 00:02:38;;;;;;;7.40;1.90;;;;;;;14.69;67.23;102196.31;5025916;28;21446;-74
2022/06/12 00:05:04;;;;;;;7.03;1.77;;;;;;;14.63;67.34;102196.44;5027585;28;20036;-74
2022/06/12 00:07:30;;;;;;;4.90;1.63;;;;;;;14.57;67.89;102196.56;5028954;28;20025;-75
2022/06/12 00:09:55;;;;;;;7.32;1.63;;;;;;;14.51;68.35;102186.22;5028420;28;20144;-74
2022/06/12 00:12:20;;;;;;;4.32;1.50;;;;;;;14.49;67.74;102188.88;5029166;28;20071;-74
2022/06/12 00:14:46;;;;;;;10.57;2.00;;;;;;;14.42;67.86;102190.75;5028870;28;20029;-75
2022/06/12 00:17:11;;;;;;;7.03;1.67;;;;;;;14.38;68.06;102186.47;5028043;28;20048;-75
2022/06/12 00:19:40;;;;;;;7.00;1.67;;;;;;;14.33;67.77;102198.81;5028395;28;20025;-74
2022/06/12 00:22:06;;;;;;;6.35;1.90;;;;;;;14.28;68.69;102192.78;5030008;28;20023;-75
2022/06/12 00:24:31;;;;;;;4.72;1.70;;;;;;;14.26;68.38;102187.56;5026887;28;20025;-74
2022/06/12 00:26:57;;;;;;;5.20;1.80;;;;;;;14.28;67.72;102190.16;5032072;28;20448;-75
2022/06/12 00:29:29;;;;;;;4.65;1.60;;;;;;;14.26;67.86;102189.34;5024837;28;20103;-75
2022/06/12 00:32:10;;;;;;;4.45;1.70;;;;;;;14.23;68.15;102198.13;5024196;28;20120;-74
2022/06/12 00:34:41;;;;;;;5.15;1.80;;;;;;;14.23;68.03;102184.16;5030521;28;20021;-74
2022/06/12 00:37:07;;;;;;;4.72;2.00;;;;;;;14.16;68.22;102187.81;5027188;28;20033;-74
2022/06/12 00:39:33;;;;;;;6.53;1.70;;;;;;;14.08;68.62;102182.72;5028379;28;20041;-75
2022/06/12 00:42:00;;;;;;;6.32;2.00;;;;;;;14.02;68.71;102188.91;5027510;28;20025;-74
2022/06/12 00:44:30;;;;;;;8.40;1.98;;;;;;;13.95;69.11;102182.06;5027271;28;20025;-75
2022/06/12 00:46:59;;;;;;;5.40;2.00;;;;;;;13.91;69.29;102190.84;5027754;28;20036;-74
2022/06/12 00:49:33;;;;;;;6.03;1.80;;;;;;;13.87;69.13;102189.19;5029219;28;20186;-75
2022/06/12 00:52:34;;;;;;;4.82;1.95;;;;;;;13.85;68.93;102185.72;5028199;28;20056;-75
2022/06/12 00:55:12;;;;;;;6.15;2.00;;;;;;;13.85;68.00;102188.34;5021661;28;20485;-74
2022/06/12 00:57:37;;;;;;;4.95;1.95;;;;;;;13.81;68.92;102195.38;5027854;28;20400;-75
2022/06/12 01:00:12;;;;;;;5.78;2.00;;;;;;;13.81;69.21;102185.81;5027001;28;20733;-75
2022/06/12 01:02:39;;;;;;;3.97;1.70;;;;;;;13.83;69.44;102192.75;5023968;28;21784;-75
2022/06/12 01:07:55;;;;;;;4.50;1.73;;;;;;;13.83;69.13;102180.53;5029997;28;20029;-74
2022/06/12 01:10:23;;;;;;;5.50;1.90;;;;;;;13.79;69.12;102187.59;5028955;28;20029;-74
2022/06/12 01:12:52;;;;;;;6.03;2.10;;;;;;;13.74;69.30;102188.56;5031532;28;20021;-74
2022/06/12 01:15:25;;;;;;;6.30;2.15;;;;;;;13.67;69.12;102187.78;5027536;28;20037;-74
2022/06/12 01:17:53;;;;;;;6.28;2.03;;;;;;;13.63;69.88;102183.50;5028373;28;20456;-74
2022/06/12 01:20:25;;;;;;;6.25;1.85;;;;;;;13.58;69.83;102187.94;5026574;28;20021;-74
2022/06/12 01:23:33;;;;;;;7.20;1.90;;;;;;;13.57;68.38;102188.81;5026140;28;20029;-74
2022/06/12 01:26:26;;;;;;;5.18;2.00;;;;;;;13.47;68.45;102191.59;5029284;28;20065;-74
2022/06/12 01:29:07;;;;;;;5.95;2.13;;;;;;;13.40;69.17;102199.53;5026966;28;20029;-74
2022/06/12 01:31:39;;;;;;;3.77;1.90;;;;;;;13.34;69.93;102190.91;5027409;28;20112;-75
2022/06/12 01:34:32;;;;;;;6.78;2.20;;;;;;;13.32;68.46;102190.06;5025620;28;20021;-74
2022/06/12 01:37:11;;;;;;;5.57;1.85;;;;;;;13.34;69.18;102190.00;5024018;28;20539;-75
2022/06/12 01:40:02;;;;;;;3.72;1.77;;;;;;;13.31;68.81;102190.94;5023334;28;20469;-75
2022/06/12 01:42:43;;;;;;;4.85;2.33;;;;;;;13.31;69.75;102190.09;5026889;28;20044;-74
2022/06/12 01:45:31;;;;;;;5.90;1.95;;;;;;;13.31;68.54;102190.09;5025843;28;20041;-74
2022/06/12 01:48:20;;;;;;;4.00;1.90;;;;;;;13.27;68.20;102178.81;5027986;28;20084;-74
2022/06/12 01:50:50;;;;;;;6.28;2.28;;;;;;;13.23;68.85;102181.50;5024724;28;20453;-74
2022/06/12 01:53:31;;;;;;;3.65;2.00;;;;;;;13.18;69.22;102169.34;5029130;28;20579;-74
2022/06/12 01:56:19;;;;;;;6.28;2.20;;;;;;;13.13;69.46;102165.97;5025634;28;20029;-74
2022/06/12 01:59:06;;;;;;;6.50;2.20;;;;;;;13.05;68.92;102178.25;5023648;28;20037;-75
2022/06/12 02:01:56;;;;;;;4.35;2.05;;;;;;;12.99;68.37;102165.28;5028368;28;20397;-74
2022/06/12 02:04:50;;;;;;;6.45;2.05;;;;;;;12.92;68.68;102167.13;5025953;28;20480;-74
2022/06/12 02:07:26;;;;;;;5.95;2.10;;;;;;;12.85;69.36;102161.13;5028801;28;20053;-74
2022/06/12 02:10:05;;;;;;;6.93;2.47;;;;;;;12.83;69.30;102167.25;5027309;28;20030;-74
2022/06/12 02:15:28;;;;;;;7.50;2.40;;;;;;;12.77;69.73;102170.84;5025389;28;20048;-74
2022/06/12 02:18:03;;;;;;;6.72;2.45;;;;;;;12.74;70.17;102170.88;5027581;28;20412;-74
2022/06/12 02:20:34;;;;;;;6.75;2.80;;;;;;;12.74;70.35;102171.72;5023919;28;20404;-75
2022/06/12 02:23:06;;;;;;;5.60;2.75;;;;;;;12.75;70.10;102172.59;5023207;28;20032;-74
2022/06/12 02:25:35;;;;;;;4.95;2.47;;;;;;;12.73;70.14;102172.59;5026734;28;20080;-74
2022/06/12 02:28:11;;;;;;;5.47;2.58;;;;;;;12.75;70.10;102180.44;5028857;28;20043;-74
2022/06/12 02:30:42;;;;;;;7.45;2.58;;;;;;;12.78;70.36;102179.50;5026836;28;20534;-74
2022/06/12 02:33:22;;;;;;;9.17;2.97;;;;;;;12.82;69.88;102175.97;5026734;28;20041;-75
2022/06/12 02:36:02;;;;;;;8.80;2.65;;;;;;;12.84;69.93;102172.47;5026845;28;20465;-74
2022/06/12 02:38:38;;;;;;;6.28;2.78;;;;;;;12.88;69.85;102171.53;5024928;28;20029;-74
2022/06/12 02:41:10;;;;;;;9.73;2.70;;;;;;;12.94;70.11;102180.19;5024335;28;20038;-74
2022/06/12 02:43:40;;;;;;;8.48;2.88;;;;;;;12.98;69.90;102172.28;5027851;28;20053;-74
2022/06/12 02:46:12;;;;;;;6.78;2.40;;;;;;;13.00;70.28;102169.63;5026148;28;20040;-74
2022/06/12 02:48:37;;;;;;;7.55;2.60;;;;;;;12.99;70.17;102158.31;5030726;28;20044;-74
2022/06/12 02:51:15;;;;;;;8.10;2.50;;;;;;;13.01;69.84;102160.91;5028834;28;20030;-74
2022/06/12 02:53:58;;;;;;;7.35;2.60;;;;;;;13.00;69.93;102164.41;5029939;28;20029;-74
2022/06/12 02:56:41;;;;;;;8.18;2.75;;;;;;;13.02;69.31;102154.78;5028947;28;20026;-74
2022/06/12 02:59:24;;;;;;;8.60;2.58;;;;;;;12.99;69.95;102154.84;5026136;28;20033;-75
2022/06/12 03:02:18;;;;;;;6.50;2.50;;;;;;;12.99;69.13;102152.22;5045637;28;20056;-74
2022/06/12 03:05:11;;;;;;;6.95;2.70;;;;;;;12.96;69.33;102147.91;5029060;28;20132;-74
2022/06/12 03:07:37;;;;;;;8.73;2.97;;;;;;;12.92;70.61;102145.38;5027740;28;20074;-74
2022/06/12 03:10:11;;;;;;;9.43;2.65;;;;;;;12.90;70.51;102148.88;5029894;28;20041;-74
2022/06/12 03:12:36;;;;;;;5.93;2.40;;;;;;;12.89;71.14;102157.59;5026825;28;20030;-74
2022/06/12 03:15:08;;;;;;;8.13;2.95;;;;;;;12.91;70.74;102165.41;5028235;28;20071;-74
2022/06/12 03:17:33;;;;;;;10.10;2.92;;;;;;;12.93;70.91;102161.00;5027803;28;20060;-74
2022/06/12 03:19:59;;;;;;;10.55;2.70;;;;;;;12.94;71.02;102165.34;5027450;28;20049;-74
2022/06/12 03:22:43;;;;;;;7.15;3.20;;;;;;;12.96;70.06;102163.59;5026601;28;20029;-74
2022/06/12 03:25:28;;;;;;;6.80;3.05;;;;;;;12.98;70.17;102166.19;5025674;28;20028;-74
2022/06/12 03:28:04;;;;;;;7.43;2.80;;;;;;;13.00;70.60;102169.63;5028505;28;20029;-74
2022/06/12 03:30:32;;;;;;;10.43;3.05;;;;;;;13.02;70.68;102175.69;5027534;28;20030;-74
2022/06/12 03:33:23;;;;;;;7.97;3.13;;;;;;;13.07;70.45;102176.50;5026734;28;20112;-75
2022/06/12 03:35:49;;;;;;;7.03;2.90;;;;;;;13.11;70.28;102162.50;5026152;28;20409;-74
2022/06/12 03:38:17;;;;;;;7.88;2.70;;;;;;;13.13;70.17;102170.31;5028562;28;20303;-74
2022/06/12 03:40:59;;;;;;;6.10;2.70;;;;;;;13.16;69.64;102163.28;5028201;28;20033;-74
2022/06/12 03:43:33;;;;;;;8.73;2.83;;;;;;;13.18;69.75;102164.13;5029260;28;20053;-74
2022/06/12 03:46:20;;;;;;;6.10;2.90;;;;;;;13.22;69.38;102175.41;5025385;28;20504;-74
2022/06/12 03:48:54;;;;;;;7.88;2.63;;;;;;;13.26;69.25;102173.59;5029482;28;20068;-74
2022/06/12 03:51:28;;;;;;;9.38;2.80;;;;;;;13.27;69.52;102167.50;5028208;28;20120;-74
2022/06/12 03:54:03;;;;;;;11.48;2.95;;;;;;;13.31;69.37;102163.97;5024835;28;20071;-75
2022/06/12 03:59:36;;;;;;;7.80;2.67;;;;;;;13.32;69.31;102161.31;5028814;28;20036;-74
2022/06/12 04:02:04;;;;;;;7.10;2.65;;;;;;;13.34;69.51;102163.88;5027404;28;20037;-74
2022/06/12 04:04:33;;;;;;;6.90;2.70;;;;;;;13.35;69.33;102161.25;5027564;28;20033;-74
2022/06/12 04:07:03;;;;;;;6.88;2.50;;;;;;;13.39;69.19;102163.84;5026480;28;20115;-74
2022/06/12 04:09:31;;;;;;;7.38;2.42;;;;;;;13.41;69.22;102164.72;5029077;28;20373;-74
2022/06/12 04:12:01;;;;;;;8.85;2.63;;;;;;;13.43;68.96;102171.63;5025577;28;20033;-75
2022/06/12 04:14:40;;;;;;;8.27;2.63;;;;;;;13.46;68.94;102168.09;5027448;28;20037;-74
2022/06/12 04:17:05;;;;;;;7.22;2.72;;;;;;;13.48;69.02;102171.53;5024383;28;20120;-74
2022/06/12 04:19:58;;;;;;;7.30;2.55;;;;;;;13.49;69.15;102168.88;5025457;28;20125;-74
2022/06/12 04:22:22;;;;;;;8.65;2.78;;;;;;;13.54;68.80;102166.22;5029060;28;20037;-74
2022/06/12 04:24:58;;;;;;;10.90;2.85;;;;;;;13.58;68.52;102172.25;5022622;28;20033;-74
2022/06/12 04:27:29;;;;;;;7.10;2.60;;;;;;;13.61;68.77;102166.97;5027456;28;20052;-74
2022/06/12 04:30:05;;;;;;;6.80;2.53;;;;;;;13.63;68.95;102175.66;5025165;28;20112;-74
2022/06/12 04:32:31;;;;;;;8.35;2.50;;;;;;;13.65;68.75;102174.72;5025189;28;20044;-74
2022/06/12 04:34:57;;;;;;;8.40;2.45;;;;;;;13.66;69.12;102173.84;5026858;28;20029;-74
2022/06/12 04:37:32;;;;;;;9.57;2.72;;;;;;;13.68;68.39;102173.81;5026743;28;20037;-74
2022/06/12 04:39:59;;;;;;;6.15;3.00;;;;;;;13.70;69.21;102174.66;5025055;28;20108;-74
2022/06/12 04:42:28;;;;;;;7.07;2.63;;;;;;;13.73;68.89;102184.22;5025773;28;20025;-74
2022/06/12 04:44:54;;;;;;;6.00;2.90;;;;;;;13.74;68.87;102180.72;5027277;28;20049;-74
2022/06/12 04:47:23;;;;;;;7.38;3.20;;;;;;;13.75;68.90;102185.91;5024518;28;20034;-74
2022/06/12 04:49:49;;;;;;;9.00;3.42;;;;;;;13.77;68.83;102183.25;5028633;28;20014;-74
2022/06/12 04:52:16;;;;;;;8.70;3.08;;;;;;;13.78;69.17;102183.22;5026676;28;20112;-74
2022/06/12 04:54:43;;;;;;;7.50;2.90;;;;;;;13.79;68.47;102182.34;5024116;28;20065;-74
2022/06/12 04:57:09;;;;;;;12.18;3.47;;;;;;;13.83;68.95;102187.53;5027622;28;20147;-74
2022/06/12 04:59:36;;;;;;;7.82;3.05;;;;;;;13.85;68.37;102183.09;5031408;28;20384;-74
2022/06/12 05:02:01;;;;;;;13.13;3.15;;;;;;;13.88;68.58;102190.91;5028201;28;20029;-74
2022/06/12 05:04:28;;;;;;;15.20;3.20;;;;;;;13.91;68.19;102189.13;5028840;28;20029;-74
2022/06/12 05:06:54;;;;;;;12.00;3.53;;;;;;;13.95;68.16;102179.44;5027743;28;20025;-74
2022/06/12 05:09:25;;;;;;;9.32;3.40;;;;;;;13.98;68.02;102174.16;5031887;28;20087;-74
2022/06/12 05:11:51;;;;;;;9.18;3.42;;;;;;;14.00;68.19;102172.38;5027020;28;20090;-74
2022/06/12 05:14:17;;;;;;;7.97;3.13;;;;;;;14.02;67.95;102170.59;5027561;28;20028;-74
2022/06/12 05:16:42;;;;;;;12.65;3.53;;;;;;;14.04;67.84;102171.41;5030079;28;20607;-74
2022/06/12 05:19:12;;;;;;;8.30;3.10;;;;;;;14.07;67.61;102179.22;5026888;28;20061;-74
2022/06/12 05:21:38;;;;;;;11.35;3.20;;;;;;;14.10;67.98;102181.78;5027033;28;20033;-74
2022/06/12 05:24:04;;;;;;;10.52;3.25;;;;;;;14.14;67.72;102179.97;5027371;28;20032;-74
2022/06/12 05:26:33;;;;;;;9.07;3.25;;;;;;;14.19;68.12;102170.28;5022207;28;20050;-74
2022/06/12 05:29:00;;;;;;;7.60;3.05;;;;;;;14.22;67.16;102183.31;5029297;28;20036;-74
2022/06/12 05:31:25;;;;;;;10.75;3.22;;;;;;;14.26;67.29;102173.63;5025215;28;20484;-74
2022/06/12 05:33:51;;;;;;;7.15;2.95;;;;;;;14.30;68.39;102183.16;5025503;28;20040;-74
2022/06/12 05:36:16;;;;;;;10.75;3.65;;;;;;;14.33;68.15;102179.59;5030351;28;20468;-74
2022/06/12 05:38:43;;;;;;;10.88;3.47;;;;;;;14.39;67.93;102176.88;5025787;28;20537;-74
2022/06/12 05:41:09;;;;;;;13.50;3.70;;;;;;;14.43;67.71;102175.91;5024591;28;20029;-74
2022/06/12 05:43:34;;;;;;;10.95;3.20;;;;;;;14.47;67.63;102180.19;5026077;28;20039;-74
2022/06/12 05:45:59;;;;;;;10.20;3.33;;;;;;;14.52;67.31;102183.56;5026647;28;20362;-74
2022/06/12 05:48:25;;;;;;;11.57;3.58;;;;;;;14.57;67.66;102183.47;5022591;28;20029;-74
2022/06/12 05:50:53;;;;;;;16.17;3.50;;;;;;;14.62;67.65;102189.47;5025984;28;20025;-74
2022/06/12 05:53:20;;;;;;;10.77;3.30;;;;;;;14.66;68.03;102185.91;5028376;28;20109;-74
2022/06/12 05:55:47;;;;;;;12.18;3.42;;;;;;;14.72;68.52;102191.03;5026590;28;20059;-74
2022/06/12 05:58:14;;;;;;;11.93;3.58;;;;;;;14.77;68.54;102195.31;5026041;28;20503;-74
2022/06/12 06:00:39;;;;;;;13.82;3.60;;;;;;;14.82;68.63;102185.59;5026636;28;20391;-74
2022/06/12 06:03:05;;;;;;;12.60;3.70;;;;;;;14.89;68.63;102194.19;5023414;28;20029;-74
2022/06/12 06:05:31;;;;;;;16.25;3.88;;;;;;;14.94;69.17;102192.34;5024666;28;20033;-74
2022/06/12 06:07:56;;;;;;;11.55;3.28;;;;;;;14.97;68.59;102190.50;5023608;28;20032;-74
2022/06/12 06:10:25;;;;;;;9.85;3.45;;;;;;;15.03;69.04;102195.59;5028667;28;20028;-74
2022/06/12 06:12:52;;;;;;;16.15;3.95;;;;;;;15.10;68.89;102192.84;5020843;28;20025;-74
2022/06/12 06:15:18;;;;;;;11.63;3.63;;;;;;;15.14;68.47;102191.88;5026453;28;20033;-74
2022/06/12 06:17:43;;;;;;;8.82;3.33;;;;;;;15.21;68.82;102196.06;5027779;28;20112;-74
2022/06/12 06:20:12;;;;;;;13.23;3.70;;;;;;;15.25;68.38;102196.88;5026899;28;20102;-74
2022/06/12 06:22:38;;;;;;;11.80;3.90;;;;;;;15.30;69.48;102206.34;5026016;28;20033;-74
2022/06/12 06:25:04;;;;;;;12.63;3.78;;;;;;;15.36;69.29;102202.72;5025998;28;20025;-74
2022/06/12 06:27:29;;;;;;;13.10;3.80;;;;;;;15.41;69.54;102200.84;5028905;28;20392;-74
2022/06/12 06:29:54;;;;;;;15.00;4.10;;;;;;;15.48;69.36;102197.16;5026624;28;20036;-74
2022/06/12 06:32:19;;;;;;;14.27;3.70;;;;;;;15.52;68.93;102203.22;5024277;28;20040;-74
2022/06/12 06:34:45;;;;;;;9.15;3.63;;;;;;;15.57;70.28;102201.31;5029701;28;20052;-74
2022/06/12 06:37:11;;;;;;;12.93;3.80;;;;;;;15.62;70.30;102204.69;5026233;28;21549;-74
2022/06/12 06:39:38;;;;;;;10.90;4.22;;;;;;;15.66;70.36;102207.25;5024557;28;20033;-74
2022/06/12 06:42:05;;;;;;;15.55;3.88;;;;;;;15.70;70.44;102207.13;5025762;28;20041;-74
2022/06/12 06:47:15;;;;;;;15.07;4.18;;;;;;;15.82;69.85;102211.19;5026214;28;20063;-74
2022/06/12 06:49:40;;;;;;;13.48;3.95;;;;;;;15.89;70.22;102218.03;5025328;28;20476;-74
2022/06/12 06:52:06;;;;;;;21.60;4.40;;;;;;;15.95;69.74;102218.78;5027207;28;20083;-74
2022/06/12 06:54:31;;;;;;;13.75;4.03;;;;;;;16.00;69.68;102216.91;5025014;28;20368;-74
2022/06/12 06:56:57;;;;;;;19.20;4.43;;;;;;;16.07;69.28;102226.31;5029477;28;20541;-74
2022/06/12 06:59:22;;;;;;;18.10;4.32;;;;;;;16.17;69.71;102227.81;5026905;28;20391;-75
2022/06/12 07:01:48;;;;;;;13.23;4.07;;;;;;;16.28;68.39;102218.75;5027960;28;20040;-74
2022/06/12 07:04:14;;;;;;;12.57;4.28;;;;;;;16.35;68.71;102209.81;5025218;28;20021;-74
2022/06/12 07:06:40;;;;;;;12.63;4.10;;;;;;;16.42;68.04;102215.75;5024844;28;20033;-75
2022/06/12 07:09:06;;;;;;;12.32;3.83;;;;;;;16.49;67.20;102212.91;5023252;28;20034;-75
2022/06/12 07:11:32;;;;;;;17.13;4.28;;;;;;;16.53;67.38;102208.41;5024627;28;20048;-74
2022/06/12 07:13:58;;;;;;;14.75;3.95;;;;;;;16.57;66.71;102209.22;5031677;28;20037;-74
2022/06/12 07:16:26;;;;;;;12.60;4.22;;;;;;;16.58;66.76;102217.03;5029404;28;20017;-74
2022/06/12 07:18:51;;;;;;;13.90;3.90;;;;;;;16.60;66.88;102219.63;5027882;28;20021;-74
2022/06/12 07:21:17;;;;;;;14.13;4.43;;;;;;;16.59;67.22;102212.63;5025422;28;20048;-74
2022/06/12 07:23:43;;;;;;;12.70;3.88;;;;;;;16.59;66.43;102215.25;5024035;28;20388;-74
2022/06/12 07:26:16;;;;;;;15.35;3.97;;;;;;;16.65;68.22;102217.72;5033095;28;20059;-74
2022/06/12 07:28:42;;;;;;;14.75;4.18;;;;;;;16.71;67.22;102207.03;5024887;28;20453;-74
2022/06/12 07:31:08;;;;;;;13.13;3.78;;;;;;;16.77;65.42;102209.47;5025308;28;20034;-74
2022/06/12 07:33:34;;;;;;;14.20;3.67;;;;;;;16.80;65.97;102217.25;5027957;28;20064;-74
2022/06/12 07:35:59;;;;;;;11.63;3.67;;;;;;;16.83;65.45;102219.81;5030433;28;20030;-74
2022/06/12 07:38:27;;;;;;;12.27;3.35;;;;;;;16.88;65.49;102218.81;5031029;28;20024;-74
2022/06/12 07:40:58;;;;;;;13.60;3.20;;;;;;;16.98;64.54;102220.28;5029024;28;20025;-74
2022/06/12 07:43:27;;;;;;;11.73;3.50;;;;;;;17.11;64.33;102218.13;5028389;28;20029;-74
2022/06/12 07:45:53;;;;;;;12.20;3.50;;;;;;;17.25;65.38;102217.72;5029912;28;20070;-75
2022/06/12 07:48:20;;;;;;;11.32;3.00;;;;;;;17.32;62.43;102227.09;5032995;28;20057;-75
2022/06/12 07:50:48;;;;;;;14.52;3.50;;;;;;;17.31;62.21;102232.44;5032755;28;20052;-74
2022/06/12 07:53:14;;;;;;;10.98;3.00;;;;;;;17.19;61.71;102224.00;5028097;28;20043;-74
2022/06/12 07:55:39;;;;;;;12.20;3.13;;;;;;;17.11;62.72;102216.34;5027156;28;20443;-74
2022/06/12 07:58:05;;;;;;;12.10;3.25;;;;;;;17.09;62.30;102223.41;5026601;28;20112;-74
2022/06/12 08:00:31;;;;;;;11.07;3.80;;;;;;;17.11;62.77;102226.03;5027836;28;20033;-75
2022/06/12 08:02:56;;;;;;;10.50;3.45;;;;;;;17.17;63.34;102227.59;5034520;28;20472;-74
2022/06/12 08:05:22;;;;;;;16.35;3.55;;;;;;;17.25;64.05;102225.59;5031816;28;20033;-77
2022/06/12 08:07:48;;;;;;;10.68;3.10;;;;;;;17.35;63.75;102228.75;5028431;28;20034;-74
2022/06/12 08:10:14;;;;;;;13.82;3.70;;;;;;;17.47;63.21;102222.25;5026759;28;20548;-74
2022/06/12 08:12:43;;;;;;;8.70;3.22;;;;;;;17.51;61.82;102226.50;5030499;28;20519;-74
2022/06/12 08:15:13;;;;;;;9.52;3.40;;;;;;;17.53;62.55;102224.69;5028143;28;20068;-74
2022/06/12 08:17:38;;;;;;;11.77;3.47;;;;;;;17.54;64.09;102218.53;5028552;28;20033;-77
2022/06/12 08:22:48;;;;;;;9.35;3.65;;;;;;;17.66;63.22;102223.38;5029977;28;20071;-75
2022/06/12 08:25:13;;;;;;;11.93;3.30;;;;;;;17.70;62.75;102218.84;5033232;28;20120;-75
2022/06/12 08:27:39;;;;;;;11.48;3.38;;;;;;;17.74;61.67;102215.22;5039438;28;20083;-75
2022/06/12 08:30:06;;;;;;;12.02;3.55;;;;;;;17.77;62.67;102214.22;5033032;28;20037;-74
2022/06/12 08:32:31;;;;;;;14.10;3.97;;;;;;;17.81;62.55;102219.38;5027634;28;20083;-75
2022/06/12 08:35:05;;;;;;;11.43;3.47;;;;;;;17.87;62.10;102226.19;5033865;28;20032;-75
2022/06/12 08:37:34;;;;;;;10.73;3.83;;;;;;;17.87;62.01;102215.66;5037606;28;20087;-75
2022/06/12 08:40:01;;;;;;;9.10;3.50;;;;;;;17.92;63.75;102221.63;5035800;28;20032;-75
2022/06/12 08:42:41;;;;;;;9.77;3.45;;;;;;;18.00;62.27;102227.50;5032045;28;20106;-75
2022/06/12 08:45:12;;;;;;;12.57;3.72;;;;;;;18.09;63.04;102214.94;5032731;28;20035;-75
2022/06/12 08:48:01;;;;;;;12.05;3.60;;;;;;;18.17;62.20;102210.25;5025125;28;20733;-75
2022/06/12 08:50:32;;;;;;;11.57;2.95;;;;;;;18.20;61.63;102218.88;5028119;28;20029;-76
2022/06/12 08:53:06;;;;;;;10.63;3.50;;;;;;;18.16;60.30;102216.44;5028629;28;20061;-75
2022/06/12 08:55:43;;;;;;;10.27;3.25;;;;;;;18.09;60.55;102212.31;5036804;28;20048;-75
2022/06/12 08:58:09;;;;;;;10.07;3.60;;;;;;;18.11;60.15;102207.81;5030381;28;20045;-75
2022/06/12 09:00:37;;;;;;;12.02;3.28;;;;;;;18.13;58.85;102211.25;5027126;28;20098;-75
2022/06/12 09:03:08;;;;;;;11.52;2.72;;;;;;;18.10;58.96;102203.50;5031203;28;20028;-76
2022/06/12 09:06:00;;;;;;;10.07;3.20;;;;;;;18.04;60.29;102205.44;5032934;28;20049;-76
2022/06/12 09:09:00;;;;;;;9.60;3.08;;;;;;;18.09;60.28;102205.25;5038776;28;20041;-76
2022/06/12 09:11:40;;;;;;;10.93;2.92;;;;;;;18.14;60.43;102203.31;5026977;28;20464;-76
2022/06/12 09:14:26;;;;;;;11.77;2.88;;;;;;;18.25;60.54;102205.56;5036371;28;20036;-76
2022/06/12 09:17:10;;;;;;;10.55;3.08;;;;;;;18.29;59.18;102207.16;5025471;28;20082;-75
2022/06/12 09:19:57;;;;;;;13.25;3.17;;;;;;;18.34;59.54;102197.31;5027739;28;20044;-76
2022/06/12 09:22:49;;;;;;;7.82;2.33;;;;;;;18.43;57.35;102192.63;5032933;28;20071;-75
2022/06/12 09:25:17;;;;;;;9.15;2.80;;;;;;;18.56;57.92;102196.53;5034052;28;20053;-75
2022/06/12 09:27:57;;;;;;;7.57;2.53;;;;;;;18.61;57.30;102191.06;5024418;28;21573;-75
2022/06/12 09:30:48;;;;;;;10.43;2.92;;;;;;;18.72;58.76;102190.66;5029082;28;20464;-75
2022/06/12 09:33:25;;;;;;;8.85;2.90;;;;;;;18.80;57.50;102193.84;5033034;28;20048;-75
2022/06/12 09:36:17;;;;;;;7.10;2.45;;;;;;;18.87;56.14;102203.25;5032318;28;20033;-75
2022/06/12 09:38:51;;;;;;;7.40;2.13;;;;;;;18.87;53.13;102203.25;5034948;28;20037;-75
2022/06/12 09:41:25;;;;;;;9.82;2.33;;;;;;;18.93;57.43;102191.59;5035982;28;20052;-75
2022/06/12 09:44:14;;;;;;;8.35;2.97;;;;;;;19.01;56.63;102186.03;5036972;28;20028;-75
2022/06/12 09:47:00;;;;;;;7.68;2.88;;;;;;;19.05;56.80;102188.50;5036011;28;20033;-76
2022/06/12 09:49:34;;;;;;;8.82;2.90;;;;;;;19.10;55.74;102189.19;5031146;28;20124;-76
2022/06/12 09:52:25;;;;;;;11.00;3.13;;;;;;;19.14;56.57;102183.78;5034300;28;20033;-76
2022/06/12 09:55:01;;;;;;;11.85;3.03;;;;;;;19.23;55.63;102192.19;5022039;28;20130;-75
2022/06/12 09:57:54;;;;;;;7.07;2.83;;;;;;;19.43;57.03;102182.59;5033637;28;20371;-76
2022/06/12 10:00:23;;;;;;;9.55;2.67;;;;;;;19.53;54.67;102190.97;5033123;28;20048;-76
2022/06/12 10:03:09;;;;;;;9.68;2.67;;;;;;;19.58;54.74;102182.84;5034579;28;20033;-76
2022/06/12 10:05:55;;;;;;;11.65;2.70;;;;;;;19.66;55.23;102186.03;5036134;28;20109;-76
2022/06/12 10:08:49;;;;;;;10.90;2.85;;;;;;;19.67;54.73;102182.44;5030241;28;20174;-77
2022/06/12 10:11:27;;;;;;;6.72;2.60;;;;;;;19.72;55.07;102172.56;5035736;28;20110;-76
2022/06/12 10:14:14;;;;;;;12.02;2.53;;;;;;;19.81;54.50;102174.78;5032478;28;20029;-76
2022/06/12 10:16:46;;;;;;;7.63;2.70;;;;;;;19.88;54.17;102172.78;5029770;28;20025;-77
2022/06/12 10:19:35;;;;;;;8.65;2.58;;;;;;;19.99;55.20;102177.56;5032564;28;20049;-77
2022/06/12 10:22:07;;;;;;;8.45;2.50;;;;;;;19.95;52.49;102182.16;5034131;28;20118;-76
2022/06/12 10:24:33;;;;;;;9.27;2.40;;;;;;;19.89;52.57;102176.28;5031834;28;20107;-77
2022/06/12 10:27:02;;;;;;;11.55;2.72;;;;;;;19.81;53.51;102176.59;5032371;28;20437;-77
2022/06/12 10:29:44;;;;;;;9.73;2.55;;;;;;;19.78;53.56;102177.59;5031239;28;20033;-76
2022/06/12 10:32:15;;;;;;;10.20;2.90;;;;;;;19.73;52.88;102181.34;5034071;28;20379;-76
2022/06/12 10:34:40;;;;;;;8.52;2.70;;;;;;;19.74;52.17;102177.75;5034193;28;20115;-77
2022/06/12 10:37:22;;;;;;;9.48;2.70;;;;;;;19.76;54.21;102175.91;5031934;28;20112;-77
2022/06/12 10:40:27;;;;;;;10.65;2.90;;;;;;;19.83;54.20;102172.94;5028994;28;20591;-78
2022/06/12 10:42:57;;;;;;;9.05;2.83;;;;;;;19.88;51.96;102169.28;5018785;28;20075;-77
2022/06/12 10:45:27;;;;;;;7.45;2.60;;;;;;;19.96;52.20;102168.03;5015156;28;20558;-76
2022/06/12 10:47:55;;;;;;;8.23;2.97;;;;;;;20.01;52.68;102167.81;5023210;28;20099;-76
2022/06/12 10:50:30;;;;;;;10.25;3.00;;;;;;;20.07;52.86;102156.97;5029365;28;20033;-76
2022/06/12 10:53:23;;;;;;;10.25;3.22;;;;;;;20.11;53.43;102158.56;5033222;28;20479;-77
2022/06/12 10:55:54;;;;;;;8.57;3.00;;;;;;;20.10;53.03;102153.34;5030952;28;20048;-76
2022/06/12 10:58:28;;;;;;;;;;;;;;;20.12;53.62;102160.28;5037037;28;20704;-76
2022/06/12 11:00:59;;;;;;;9.32;2.88;;;;;;;20.10;51.31;102159.50;5034771;28;19921;-76
2022/06/12 11:03:43;;;;;;;10.32;2.47;;;;;;;20.15;53.15;102162.75;5034687;28;20032;-77
2022/06/12 11:06:30;;;;;;;5.85;1.95;;;;;;;20.13;51.76;102161.13;5038127;28;20750;-77
2022/06/12 11:09:22;;;;;;;11.38;2.20;;;;;;;20.03;51.21;102165.97;5038832;28;20165;-77
2022/06/12 11:12:07;;;;;;;7.28;2.20;;;;;;;20.02;52.31;102154.56;5038780;28;20128;-76
2022/06/12 11:14:55;;;;;;;8.93;2.22;;;;;;;20.07;51.28;102164.91;5038813;28;20983;-77
2022/06/12 11:17:38;;;;;;;10.13;1.90;;;;;;;20.04;50.37;102149.19;5038588;28;20375;-76
2022/06/12 11:20:13;;;;;;;9.75;2.25;;;;;;;20.05;50.48;102157.97;5037683;28;20041;-76
2022/06/12 11:23:06;;;;;;;6.75;2.20;;;;;;;20.01;52.40;102144.03;5039909;28;20029;-76
2022/06/12 11:25:54;;;;;;;9.43;2.35;;;;;;;20.04;52.07;102150.97;5043399;28;20080;-76
2022/06/12 11:28:57;;;;;;;12.30;2.05;;;;;;;20.13;52.09;102143.50;5037991;28;20029;-76
2022/06/12 11:31:43;;;;;;;8.85;2.08;;;;;;;20.24;49.72;102144.78;5028233;28;20071;-76
2022/06/12 11:34:50;;;;;;;6.72;2.15;;;;;;;20.32;51.02;102150.59;5034611;28;20033;-76
2022/06/12 11:37:25;;;;;;;8.57;2.17;;;;;;;20.34;50.88;102145.22;5018762;28;20484;-76
2022/06/12 11:39:56;;;;;;;5.43;1.55;;;;;;;20.42;50.75;102136.00;5035197;28;20037;-76
2022/06/12 11:42:24;;;;;;;;;;;;;;;20.51;51.80;102134.72;5037430;28;20044;-76
2022/06/12 11:45:02;;;;;;;6.65;1.55;;;;;;;20.54;49.81;102131.94;5037481;28;21385;-76
2022/06/12 11:48:07;;;;;;;5.63;1.90;;;;;;;20.61;51.77;102135.13;5036048;28;20060;-76
2022/06/12 11:50:46;;;;;;;6.78;1.75;;;;;;;20.61;49.44;102130.69;5032666;28;22083;-76
2022/06/12 11:53:38;;;;;;;8.38;1.75;;;;;;;20.56;49.21;102132.72;5033048;28;20021;-76
2022/06/12 11:56:31;;;;;;;7.10;2.28;;;;;;;20.50;50.01;102121.56;5033676;28;20059;-75
2022/06/12 11:59:06;;;;;;;6.35;1.90;;;;;;;20.49;48.49;102123.34;5034873;28;20025;-77
2022/06/12 12:01:38;;;;;;;5.43;1.63;;;;;;;20.47;48.40;102106.69;5035248;28;20041;-76
2022/06/12 12:04:09;;;;;;;6.75;1.92;;;;;;;20.51;47.28;102116.22;5044307;28;20029;-76